sensor_id;sensor_type;location;lat;lon;timestamp;temperature;humidity
35593;DHT22;64447;52.140;5.602;2023-05-07T00:01:18;17.90;99.90
35593;DHT22;64447;52.140;5.602;2023-05-07T00:03:43;17.80;99.90
35593;DHT22;64447;52.140;5.602;2023-05-07T00:06:09;17.80;99.90
35593;DHT22;64447;52.140;5.602;2023-05-07T00:08:38;17.70;99.90
35593;DHT22;64447;52.140;5.602;2023-05-07T00:11:03;17.60;99.90
35593;DHT22;64447;52.140;5.602;2023-05-07T00:16:51;17.60;99.90
35593;DHT22;64447;52.140;5.602;2023-05-07T00:19:17;17.60;99.90
35593;DHT22;64447;52.140;5.602;2023-05-07T00:21:42;17.70;99.90
35593;DHT22;64447;52.140;5.602;2023-05-07T00:24:08;17.80;99.90
35593;DHT22;64447;52.140;5.602;2023-05-07T00:26:33;17.80;99.90
35593;DHT22;64447;52.140;5.602;2023-05-07T00:28:59;17.80;99.90
35593;DHT22;64447;52.140;5.602;2023-05-07T00:31:24;17.80;99.90
35593;DHT22;64447;52.140;5.602;2023-05-07T00:33:50;17.70;99.90
35593;DHT22;64447;52.140;5.602;2023-05-07T00:36:15;17.60;99.90
35593;DHT22;64447;52.140;5.602;2023-05-07T00:38:41;17.60;99.90
35593;DHT22;64447;52.140;5.602;2023-05-07T00:41:07;17.60;99.90
35593;DHT22;64447;52.140;5.602;2023-05-07T00:46:55;17.60;99.90
35593;DHT22;64447;52.140;5.602;2023-05-07T00:49:21;17.60;99.90
35593;DHT22;64447;52.140;5.602;2023-05-07T00:51:47;17.60;99.90
35593;DHT22;64447;52.140;5.602;2023-05-07T00:54:13;17.70;99.90
35593;DHT22;64447;52.140;5.602;2023-05-07T00:56:38;17.70;99.90
35593;DHT22;64447;52.140;5.602;2023-05-07T00:59:05;17.70;99.90
35593;DHT22;64447;52.140;5.602;2023-05-07T01:01:31;17.70;99.90
35593;DHT22;64447;52.140;5.602;2023-05-07T01:03:57;17.70;99.90
35593;DHT22;64447;52.140;5.602;2023-05-07T01:06:24;17.60;99.90
35593;DHT22;64447;52.140;5.602;2023-05-07T01:08:51;17.60;99.90
35593;DHT22;64447;52.140;5.602;2023-05-07T01:11:18;17.60;99.90
35593;DHT22;64447;52.140;5.602;2023-05-07T01:17:07;17.70;99.90
35593;DHT22;64447;52.140;5.602;2023-05-07T01:19:33;17.60;99.90
35593;DHT22;64447;52.140;5.602;2023-05-07T01:22:03;17.60;99.90
35593;DHT22;64447;52.140;5.602;2023-05-07T01:24:32;17.60;99.90
35593;DHT22;64447;52.140;5.602;2023-05-07T01:26:59;17.60;99.90
35593;DHT22;64447;52.140;5.602;2023-05-07T01:29:24;17.60;99.90
35593;DHT22;64447;52.140;5.602;2023-05-07T01:31:51;17.60;99.90
35593;DHT22;64447;52.140;5.602;2023-05-07T01:34:18;17.60;99.90
35593;DHT22;64447;52.140;5.602;2023-05-07T01:36:46;17.50;99.90
35593;DHT22;64447;52.140;5.602;2023-05-07T01:39:12;17.30;99.90
35593;DHT22;64447;52.140;5.602;2023-05-07T01:41:38;17.30;99.90
35593;DHT22;64447;52.140;5.602;2023-05-07T01:47:26;17.30;99.90
35593;DHT22;64447;52.140;5.602;2023-05-07T01:49:52;17.30;99.90
35593;DHT22;64447;52.140;5.602;2023-05-07T01:52:18;17.20;99.90
35593;DHT22;64447;52.140;5.602;2023-05-07T01:54:43;17.30;99.90
35593;DHT22;64447;52.140;5.602;2023-05-07T01:57:09;17.20;99.90
35593;DHT22;64447;52.140;5.602;2023-05-07T01:59:35;17.30;99.90
35593;DHT22;64447;52.140;5.602;2023-05-07T02:02:01;17.30;99.90
35593;DHT22;64447;52.140;5.602;2023-05-07T02:04:26;17.30;99.90
35593;DHT22;64447;52.140;5.602;2023-05-07T02:06:52;17.40;99.90
35593;DHT22;64447;52.140;5.602;2023-05-07T02:09:18;17.20;99.90
35593;DHT22;64447;52.140;5.602;2023-05-07T02:11:44;17.20;99.90
35593;DHT22;64447;52.140;5.602;2023-05-07T02:17:31;17.30;99.90
35593;DHT22;64447;52.140;5.602;2023-05-07T02:19:59;17.30;99.90
35593;DHT22;64447;52.140;5.602;2023-05-07T02:22:25;17.30;99.90
35593;DHT22;64447;52.140;5.602;2023-05-07T02:24:51;17.20;99.90
35593;DHT22;64447;52.140;5.602;2023-05-07T02:27:16;17.30;99.90
35593;DHT22;64447;52.140;5.602;2023-05-07T02:29:42;17.30;99.90
35593;DHT22;64447;52.140;5.602;2023-05-07T02:32:07;17.30;99.90
35593;DHT22;64447;52.140;5.602;2023-05-07T02:34:33;17.30;99.90
35593;DHT22;64447;52.140;5.602;2023-05-07T02:36:58;17.30;99.90
35593;DHT22;64447;52.140;5.602;2023-05-07T02:39:24;17.20;99.90
35593;DHT22;64447;52.140;5.602;2023-05-07T02:41:50;17.30;99.90
35593;DHT22;64447;52.140;5.602;2023-05-07T02:47:37;17.30;99.90
35593;DHT22;64447;52.140;5.602;2023-05-07T02:50:03;17.20;99.90
35593;DHT22;64447;52.140;5.602;2023-05-07T02:52:29;17.20;99.90
35593;DHT22;64447;52.140;5.602;2023-05-07T02:54:55;17.20;99.90
35593;DHT22;64447;52.140;5.602;2023-05-07T02:57:20;17.10;99.90
35593;DHT22;64447;52.140;5.602;2023-05-07T02:59:46;17.10;99.90
35593;DHT22;64447;52.140;5.602;2023-05-07T03:02:11;17.10;99.90
35593;DHT22;64447;52.140;5.602;2023-05-07T03:04:38;17.20;99.90
35593;DHT22;64447;52.140;5.602;2023-05-07T03:07:04;17.20;99.90
35593;DHT22;64447;52.140;5.602;2023-05-07T03:09:29;17.20;99.90
35593;DHT22;64447;52.140;5.602;2023-05-07T03:11:56;17.20;99.90
35593;DHT22;64447;52.140;5.602;2023-05-07T03:17:43;17.30;99.90
35593;DHT22;64447;52.140;5.602;2023-05-07T03:20:09;17.30;99.90
35593;DHT22;64447;52.140;5.602;2023-05-07T03:22:36;17.30;99.90
35593;DHT22;64447;52.140;5.602;2023-05-07T03:25:01;17.30;99.90
35593;DHT22;64447;52.140;5.602;2023-05-07T03:27:27;17.20;99.90
35593;DHT22;64447;52.140;5.602;2023-05-07T03:29:53;17.20;99.90
35593;DHT22;64447;52.140;5.602;2023-05-07T03:32:18;17.20;99.90
35593;DHT22;64447;52.140;5.602;2023-05-07T03:34:44;17.00;99.90
35593;DHT22;64447;52.140;5.602;2023-05-07T03:37:09;17.00;99.90
35593;DHT22;64447;52.140;5.602;2023-05-07T03:39:35;17.00;99.90
35593;DHT22;64447;52.140;5.602;2023-05-07T03:42:00;17.00;99.90
35593;DHT22;64447;52.140;5.602;2023-05-07T03:47:48;17.00;99.90
35593;DHT22;64447;52.140;5.602;2023-05-07T03:50:13;16.90;99.90
35593;DHT22;64447;52.140;5.602;2023-05-07T03:52:39;16.90;99.90
35593;DHT22;64447;52.140;5.602;2023-05-07T03:55:05;16.90;99.90
35593;DHT22;64447;52.140;5.602;2023-05-07T03:57:31;16.90;99.90
35593;DHT22;64447;52.140;5.602;2023-05-07T03:59:57;16.80;99.90
35593;DHT22;64447;52.140;5.602;2023-05-07T04:02:22;16.90;99.90
35593;DHT22;64447;52.140;5.602;2023-05-07T04:04:48;16.80;99.90
35593;DHT22;64447;52.140;5.602;2023-05-07T04:07:14;16.90;99.90
35593;DHT22;64447;52.140;5.602;2023-05-07T04:09:40;16.80;99.90
35593;DHT22;64447;52.140;5.602;2023-05-07T04:12:06;16.80;99.90
35593;DHT22;64447;52.140;5.602;2023-05-07T04:17:53;16.50;99.90
35593;DHT22;64447;52.140;5.602;2023-05-07T04:20:19;16.40;99.90
35593;DHT22;64447;52.140;5.602;2023-05-07T04:22:44;16.40;99.90
35593;DHT22;64447;52.140;5.602;2023-05-07T04:25:10;16.50;99.90
35593;DHT22;64447;52.140;5.602;2023-05-07T04:27:36;16.60;99.90
35593;DHT22;64447;52.140;5.602;2023-05-07T04:30:02;16.50;99.90
35593;DHT22;64447;52.140;5.602;2023-05-07T04:32:28;16.50;99.90
35593;DHT22;64447;52.140;5.602;2023-05-07T04:34:55;16.60;99.90
35593;DHT22;64447;52.140;5.602;2023-05-07T04:37:21;16.60;99.90
35593;DHT22;64447;52.140;5.602;2023-05-07T04:39:47;16.40;99.90
35593;DHT22;64447;52.140;5.602;2023-05-07T04:42:16;16.60;99.90
35593;DHT22;64447;52.140;5.602;2023-05-07T04:48:04;16.20;99.90
35593;DHT22;64447;52.140;5.602;2023-05-07T04:50:30;16.00;99.90
35593;DHT22;64447;52.140;5.602;2023-05-07T04:52:55;15.90;99.90
35593;DHT22;64447;52.140;5.602;2023-05-07T04:55:21;15.60;99.90
35593;DHT22;64447;52.140;5.602;2023-05-07T04:57:46;15.60;99.90
35593;DHT22;64447;52.140;5.602;2023-05-07T05:00:12;15.80;99.90
35593;DHT22;64447;52.140;5.602;2023-05-07T05:02:41;15.80;99.90
35593;DHT22;64447;52.140;5.602;2023-05-07T05:05:07;15.90;99.90
35593;DHT22;64447;52.140;5.602;2023-05-07T05:07:33;15.90;99.90
35593;DHT22;64447;52.140;5.602;2023-05-07T05:09:58;16.00;99.90
35593;DHT22;64447;52.140;5.602;2023-05-07T05:12:24;15.90;99.90
35593;DHT22;64447;52.140;5.602;2023-05-07T05:18:12;16.00;99.90
35593;DHT22;64447;52.140;5.602;2023-05-07T05:20:38;15.90;99.90
35593;DHT22;64447;52.140;5.602;2023-05-07T05:23:03;15.90;99.90
35593;DHT22;64447;52.140;5.602;2023-05-07T05:25:29;16.00;99.90
35593;DHT22;64447;52.140;5.602;2023-05-07T05:27:54;15.80;99.90
35593;DHT22;64447;52.140;5.602;2023-05-07T05:30:20;15.90;99.90
35593;DHT22;64447;52.140;5.602;2023-05-07T05:32:46;15.80;99.90
35593;DHT22;64447;52.140;5.602;2023-05-07T05:35:11;15.80;99.90
35593;DHT22;64447;52.140;5.602;2023-05-07T05:37:37;15.70;99.90
35593;DHT22;64447;52.140;5.602;2023-05-07T05:40:02;15.70;99.90
35593;DHT22;64447;52.140;5.602;2023-05-07T05:42:28;15.70;99.90
35593;DHT22;64447;52.140;5.602;2023-05-07T05:48:16;15.60;99.90
35593;DHT22;64447;52.140;5.602;2023-05-07T05:50:42;15.80;99.90
35593;DHT22;64447;52.140;5.602;2023-05-07T05:53:08;15.60;99.90
35593;DHT22;64447;52.140;5.602;2023-05-07T05:55:33;15.50;99.90
35593;DHT22;64447;52.140;5.602;2023-05-07T05:58:00;15.50;99.90
35593;DHT22;64447;52.140;5.602;2023-05-07T06:00:26;15.50;99.90
35593;DHT22;64447;52.140;5.602;2023-05-07T06:02:52;15.50;99.90
35593;DHT22;64447;52.140;5.602;2023-05-07T06:05:18;15.70;99.90
35593;DHT22;64447;52.140;5.602;2023-05-07T06:07:43;15.80;99.90
35593;DHT22;64447;52.140;5.602;2023-05-07T06:10:09;15.70;99.90
35593;DHT22;64447;52.140;5.602;2023-05-07T06:12:35;15.70;99.90
35593;DHT22;64447;52.140;5.602;2023-05-07T06:18:22;15.80;99.90
35593;DHT22;64447;52.140;5.602;2023-05-07T06:20:48;15.90;99.90
35593;DHT22;64447;52.140;5.602;2023-05-07T06:23:14;15.90;99.90
35593;DHT22;64447;52.140;5.602;2023-05-07T06:25:39;15.90;99.90
35593;DHT22;64447;52.140;5.602;2023-05-07T06:28:05;15.90;99.90
35593;DHT22;64447;52.140;5.602;2023-05-07T06:30:31;15.60;99.90
35593;DHT22;64447;52.140;5.602;2023-05-07T06:32:57;15.60;99.90
35593;DHT22;64447;52.140;5.602;2023-05-07T06:35:22;15.50;99.90
35593;DHT22;64447;52.140;5.602;2023-05-07T06:37:48;15.30;99.90
35593;DHT22;64447;52.140;5.602;2023-05-07T06:40:13;15.50;99.90
35593;DHT22;64447;52.140;5.602;2023-05-07T06:42:39;15.60;99.90
35593;DHT22;64447;52.140;5.602;2023-05-07T06:48:26;15.80;99.90
35593;DHT22;64447;52.140;5.602;2023-05-07T06:50:52;16.10;99.90
35593;DHT22;64447;52.140;5.602;2023-05-07T06:53:18;16.20;99.90
35593;DHT22;64447;52.140;5.602;2023-05-07T06:55:44;16.10;99.90
35593;DHT22;64447;52.140;5.602;2023-05-07T06:58:09;16.10;99.90
35593;DHT22;64447;52.140;5.602;2023-05-07T07:00:35;16.10;99.90
35593;DHT22;64447;52.140;5.602;2023-05-07T07:03:00;16.10;99.90
35593;DHT22;64447;52.140;5.602;2023-05-07T07:05:26;16.30;99.90
35593;DHT22;64447;52.140;5.602;2023-05-07T07:07:51;16.50;99.90
35593;DHT22;64447;52.140;5.602;2023-05-07T07:10:21;16.70;99.90
35593;DHT22;64447;52.140;5.602;2023-05-07T07:12:47;16.80;99.90
35593;DHT22;64447;52.140;5.602;2023-05-07T07:18:34;17.10;99.90
35593;DHT22;64447;52.140;5.602;2023-05-07T07:21:01;17.00;99.90
35593;DHT22;64447;52.140;5.602;2023-05-07T07:23:26;16.80;99.90
35593;DHT22;64447;52.140;5.602;2023-05-07T07:25:52;16.90;99.90
35593;DHT22;64447;52.140;5.602;2023-05-07T07:28:21;16.90;99.90
35593;DHT22;64447;52.140;5.602;2023-05-07T07:30:46;17.10;99.90
35593;DHT22;64447;52.140;5.602;2023-05-07T07:33:12;16.60;99.90
35593;DHT22;64447;52.140;5.602;2023-05-07T07:35:38;16.60;99.90
35593;DHT22;64447;52.140;5.602;2023-05-07T07:38:03;17.00;99.90
35593;DHT22;64447;52.140;5.602;2023-05-07T07:40:29;17.20;99.90
35593;DHT22;64447;52.140;5.602;2023-05-07T07:42:56;17.10;99.90
35593;DHT22;64447;52.140;5.602;2023-05-07T07:48:43;17.10;99.90
35593;DHT22;64447;52.140;5.602;2023-05-07T07:51:08;17.10;99.90
35593;DHT22;64447;52.140;5.602;2023-05-07T07:53:34;17.30;99.90
35593;DHT22;64447;52.140;5.602;2023-05-07T07:56:00;17.40;99.90
35593;DHT22;64447;52.140;5.602;2023-05-07T07:58:25;17.60;99.90
35593;DHT22;64447;52.140;5.602;2023-05-07T08:04:13;17.70;99.90
35593;DHT22;64447;52.140;5.602;2023-05-07T08:06:38;17.70;99.90
35593;DHT22;64447;52.140;5.602;2023-05-07T08:09:04;17.60;99.90
35593;DHT22;64447;52.140;5.602;2023-05-07T08:11:30;17.70;99.90
35593;DHT22;64447;52.140;5.602;2023-05-07T08:13:56;17.50;99.90
35593;DHT22;64447;52.140;5.602;2023-05-07T08:16:21;17.30;99.90
35593;DHT22;64447;52.140;5.602;2023-05-07T08:18:47;16.90;99.90
35593;DHT22;64447;52.140;5.602;2023-05-07T08:21:13;16.90;99.90
35593;DHT22;64447;52.140;5.602;2023-05-07T08:23:38;17.10;99.90
35593;DHT22;64447;52.140;5.602;2023-05-07T08:26:04;17.10;99.90
35593;DHT22;64447;52.140;5.602;2023-05-07T08:28:29;17.30;99.90
35593;DHT22;64447;52.140;5.602;2023-05-07T08:34:17;17.60;99.90
35593;DHT22;64447;52.140;5.602;2023-05-07T08:36:43;17.60;99.90
35593;DHT22;64447;52.140;5.602;2023-05-07T08:39:09;17.80;99.90
35593;DHT22;64447;52.140;5.602;2023-05-07T08:41:35;17.40;99.90
35593;DHT22;64447;52.140;5.602;2023-05-07T08:44:03;17.40;99.90
35593;DHT22;64447;52.140;5.602;2023-05-07T08:46:31;17.30;99.90
35593;DHT22;64447;52.140;5.602;2023-05-07T08:48:57;17.30;99.90
35593;DHT22;64447;52.140;5.602;2023-05-07T08:51:23;17.20;99.90
35593;DHT22;64447;52.140;5.602;2023-05-07T08:53:49;17.10;99.90
35593;DHT22;64447;52.140;5.602;2023-05-07T08:56:16;17.10;99.90
35593;DHT22;64447;52.140;5.602;2023-05-07T08:58:45;17.10;99.90
35593;DHT22;64447;52.140;5.602;2023-05-07T09:04:32;17.60;99.90
35593;DHT22;64447;52.140;5.602;2023-05-07T09:06:58;17.60;99.90
35593;DHT22;64447;52.140;5.602;2023-05-07T09:09:29;17.70;99.90
35593;DHT22;64447;52.140;5.602;2023-05-07T09:11:57;17.80;99.90
35593;DHT22;64447;52.140;5.602;2023-05-07T09:14:27;17.90;99.90
35593;DHT22;64447;52.140;5.602;2023-05-07T09:16:53;18.10;99.90
35593;DHT22;64447;52.140;5.602;2023-05-07T09:19:23;17.80;99.90
35593;DHT22;64447;52.140;5.602;2023-05-07T09:21:49;18.00;99.90
35593;DHT22;64447;52.140;5.602;2023-05-07T09:24:18;18.10;99.90
35593;DHT22;64447;52.140;5.602;2023-05-07T09:26:43;18.00;99.90
35593;DHT22;64447;52.140;5.602;2023-05-07T09:29:10;18.20;99.90
35593;DHT22;64447;52.140;5.602;2023-05-07T09:31:38;18.20;99.90
35593;DHT22;64447;52.140;5.602;2023-05-07T09:34:05;18.20;99.90
35593;DHT22;64447;52.140;5.602;2023-05-07T09:36:32;18.20;99.90
35593;DHT22;64447;52.140;5.602;2023-05-07T09:38:59;18.00;99.90
35593;DHT22;64447;52.140;5.602;2023-05-07T09:41:26;17.80;99.90
35593;DHT22;64447;52.140;5.602;2023-05-07T09:43:55;17.80;99.90
35593;DHT22;64447;52.140;5.602;2023-05-07T09:49:49;17.80;99.90
35593;DHT22;64447;52.140;5.602;2023-05-07T09:52:16;17.70;99.90
35593;DHT22;64447;52.140;5.602;2023-05-07T09:54:41;17.60;99.90
35593;DHT22;64447;52.140;5.602;2023-05-07T09:57:10;17.60;99.90
35593;DHT22;64447;52.140;5.602;2023-05-07T09:59:38;17.70;99.90
35593;DHT22;64447;52.140;5.602;2023-05-07T10:02:04;17.80;99.90
35593;DHT22;64447;52.140;5.602;2023-05-07T10:04:31;17.90;99.90
35593;DHT22;64447;52.140;5.602;2023-05-07T10:06:57;18.00;99.90
35593;DHT22;64447;52.140;5.602;2023-05-07T10:09:25;18.20;99.90
35593;DHT22;64447;52.140;5.602;2023-05-07T10:11:51;18.30;99.90
35593;DHT22;64447;52.140;5.602;2023-05-07T10:14:20;18.20;99.90
35593;DHT22;64447;52.140;5.602;2023-05-07T10:16:47;18.30;99.90
35593;DHT22;64447;52.140;5.602;2023-05-07T10:19:14;18.20;99.90
35593;DHT22;64447;52.140;5.602;2023-05-07T10:21:45;18.30;99.90
35593;DHT22;64447;52.140;5.602;2023-05-07T10:24:25;18.60;99.90
35593;DHT22;64447;52.140;5.602;2023-05-07T10:26:53;18.60;99.90
35593;DHT22;64447;52.140;5.602;2023-05-07T10:35:15;18.70;99.90
35593;DHT22;64447;52.140;5.602;2023-05-07T10:37:41;18.40;99.90
35593;DHT22;64447;52.140;5.602;2023-05-07T10:40:09;18.40;99.90
35593;DHT22;64447;52.140;5.602;2023-05-07T10:42:35;18.60;99.90
35593;DHT22;64447;52.140;5.602;2023-05-07T10:45:14;18.80;99.90
35593;DHT22;64447;52.140;5.602;2023-05-07T10:48:09;18.80;99.90
35593;DHT22;64447;52.140;5.602;2023-05-07T10:50:35;18.80;99.90
35593;DHT22;64447;52.140;5.602;2023-05-07T10:55:49;18.80;99.90
35593;DHT22;64447;52.140;5.602;2023-05-07T10:58:24;18.90;99.90
35593;DHT22;64447;52.140;5.602;2023-05-07T11:00:57;19.20;99.90
35593;DHT22;64447;52.140;5.602;2023-05-07T12:15:42;20.40;99.90
35593;DHT22;64447;52.140;5.602;2023-05-07T12:18:09;20.60;99.90
35593;DHT22;64447;52.140;5.602;2023-05-07T12:20:35;20.40;99.90
35593;DHT22;64447;52.140;5.602;2023-05-07T12:23:02;20.40;99.90
35593;DHT22;64447;52.140;5.602;2023-05-07T12:25:31;20.40;99.90
35593;DHT22;64447;52.140;5.602;2023-05-07T12:27:57;20.60;99.90
35593;DHT22;64447;52.140;5.602;2023-05-07T12:30:24;20.50;99.90
35593;DHT22;64447;52.140;5.602;2023-05-07T12:32:54;20.70;99.80
35593;DHT22;64447;52.140;5.602;2023-05-07T12:35:30;20.90;99.50
35593;DHT22;64447;52.140;5.602;2023-05-07T12:37:57;21.10;99.90
35593;DHT22;64447;52.140;5.602;2023-05-07T12:40:24;21.10;99.80
35593;DHT22;64447;52.140;5.602;2023-05-07T12:42:53;21.00;99.90
35593;DHT22;64447;52.140;5.602;2023-05-07T12:45:21;21.00;99.90
35593;DHT22;64447;52.140;5.602;2023-05-07T12:47:47;20.90;99.30
35593;DHT22;64447;52.140;5.602;2023-05-07T12:50:14;20.90;99.50
35593;DHT22;64447;52.140;5.602;2023-05-07T12:52:40;20.90;99.70
35593;DHT22;64447;52.140;5.602;2023-05-07T12:55:07;20.90;99.30
35593;DHT22;64447;52.140;5.602;2023-05-07T12:57:47;20.90;99.70
35593;DHT22;64447;52.140;5.602;2023-05-07T13:00:13;20.90;99.90
35593;DHT22;64447;52.140;5.602;2023-05-07T13:02:41;21.00;99.20
35593;DHT22;64447;52.140;5.602;2023-05-07T13:05:07;20.90;98.70
35593;DHT22;64447;52.140;5.602;2023-05-07T13:07:33;21.00;99.40
35593;DHT22;64447;52.140;5.602;2023-05-07T13:09:59;21.00;98.90
35593;DHT22;64447;52.140;5.602;2023-05-07T13:12:25;21.10;99.40
35593;DHT22;64447;52.140;5.602;2023-05-07T13:14:51;21.10;98.30
35593;DHT22;64447;52.140;5.602;2023-05-07T13:20:38;21.50;97.50
35593;DHT22;64447;52.140;5.602;2023-05-07T13:23:03;21.10;97.20
35593;DHT22;64447;52.140;5.602;2023-05-07T13:25:30;21.10;98.10
35593;DHT22;64447;52.140;5.602;2023-05-07T13:27:59;21.10;97.60
35593;DHT22;64447;52.140;5.602;2023-05-07T13:30:24;21.10;97.20
35593;DHT22;64447;52.140;5.602;2023-05-07T13:32:52;21.30;97.00
35593;DHT22;64447;52.140;5.602;2023-05-07T13:35:17;21.30;96.20
35593;DHT22;64447;52.140;5.602;2023-05-07T13:37:43;21.50;95.70
35593;DHT22;64447;52.140;5.602;2023-05-07T13:40:09;21.50;95.10
35593;DHT22;64447;52.140;5.602;2023-05-07T13:42:35;21.60;94.40
35593;DHT22;64447;52.140;5.602;2023-05-07T13:45:00;21.60;93.80
35593;DHT22;64447;52.140;5.602;2023-05-07T13:50:51;21.50;93.50
35593;DHT22;64447;52.140;5.602;2023-05-07T13:53:17;21.40;93.70
35593;DHT22;64447;52.140;5.602;2023-05-07T13:55:44;21.40;94.20
35593;DHT22;64447;52.140;5.602;2023-05-07T13:58:10;21.40;94.40
35593;DHT22;64447;52.140;5.602;2023-05-07T14:00:36;21.20;93.80
35593;DHT22;64447;52.140;5.602;2023-05-07T14:03:02;21.20;94.00
35593;DHT22;64447;52.140;5.602;2023-05-07T14:05:28;21.20;94.30
35593;DHT22;64447;52.140;5.602;2023-05-07T14:07:55;21.30;95.00
35593;DHT22;64447;52.140;5.602;2023-05-07T14:10:22;21.40;94.90
35593;DHT22;64447;52.140;5.602;2023-05-07T14:12:47;21.20;95.00
35593;DHT22;64447;52.140;5.602;2023-05-07T14:15:13;21.30;95.20
35593;DHT22;64447;52.140;5.602;2023-05-07T14:21:01;21.30;95.30
35593;DHT22;64447;52.140;5.602;2023-05-07T14:23:27;21.20;95.20
35593;DHT22;64447;52.140;5.602;2023-05-07T14:25:53;21.20;95.40
35593;DHT22;64447;52.140;5.602;2023-05-07T14:28:19;21.20;94.90
35593;DHT22;64447;52.140;5.602;2023-05-07T14:30:45;21.10;95.40
35593;DHT22;64447;52.140;5.602;2023-05-07T14:33:10;21.20;95.50
35593;DHT22;64447;52.140;5.602;2023-05-07T14:35:36;21.30;95.20
35593;DHT22;64447;52.140;5.602;2023-05-07T14:38:01;21.10;95.30
35593;DHT22;64447;52.140;5.602;2023-05-07T14:40:27;21.10;96.00
35593;DHT22;64447;52.140;5.602;2023-05-07T14:42:53;21.10;96.50
35593;DHT22;64447;52.140;5.602;2023-05-07T14:45:18;21.10;96.90
35593;DHT22;64447;52.140;5.602;2023-05-07T14:51:06;21.20;95.10
35593;DHT22;64447;52.140;5.602;2023-05-07T14:53:31;21.00;95.80
35593;DHT22;64447;52.140;5.602;2023-05-07T14:55:57;21.00;96.30
35593;DHT22;64447;52.140;5.602;2023-05-07T14:58:23;21.00;96.50
35593;DHT22;64447;52.140;5.602;2023-05-07T15:00:48;20.90;96.70
35593;DHT22;64447;52.140;5.602;2023-05-07T15:03:14;20.90;96.70
35593;DHT22;64447;52.140;5.602;2023-05-07T15:05:39;21.00;96.70
35593;DHT22;64447;52.140;5.602;2023-05-07T15:08:06;21.00;97.10
35593;DHT22;64447;52.140;5.602;2023-05-07T15:10:35;21.10;97.10
35593;DHT22;64447;52.140;5.602;2023-05-07T15:13:06;21.20;97.80
35593;DHT22;64447;52.140;5.602;2023-05-07T15:15:32;21.20;98.10
35593;DHT22;64447;52.140;5.602;2023-05-07T15:21:20;21.30;97.80
35593;DHT22;64447;52.140;5.602;2023-05-07T15:23:45;21.50;98.20
35593;DHT22;64447;52.140;5.602;2023-05-07T15:26:11;21.50;98.00
35593;DHT22;64447;52.140;5.602;2023-05-07T15:28:37;21.50;98.70
35593;DHT22;64447;52.140;5.602;2023-05-07T15:31:03;21.40;98.80
35593;DHT22;64447;52.140;5.602;2023-05-07T15:33:30;21.50;98.80
35593;DHT22;64447;52.140;5.602;2023-05-07T15:35:56;21.50;98.50
35593;DHT22;64447;52.140;5.602;2023-05-07T15:38:25;21.60;98.80
35593;DHT22;64447;52.140;5.602;2023-05-07T15:40:50;21.50;98.70
35593;DHT22;64447;52.140;5.602;2023-05-07T15:43:16;21.40;98.50
35593;DHT22;64447;52.140;5.602;2023-05-07T15:45:42;21.40;98.80
35593;DHT22;64447;52.140;5.602;2023-05-07T15:48:09;21.20;99.00
35593;DHT22;64447;52.140;5.602;2023-05-07T15:50:36;20.70;99.90
35593;DHT22;64447;52.140;5.602;2023-05-07T15:53:02;20.50;99.90
35593;DHT22;64447;52.140;5.602;2023-05-07T15:55:29;20.30;99.90
35593;DHT22;64447;52.140;5.602;2023-05-07T15:57:54;20.00;99.90
35593;DHT22;64447;52.140;5.602;2023-05-07T16:00:21;19.80;99.90
35593;DHT22;64447;52.140;5.602;2023-05-07T16:02:46;20.00;99.90
35593;DHT22;64447;52.140;5.602;2023-05-07T16:05:12;20.00;99.90
35593;DHT22;64447;52.140;5.602;2023-05-07T16:07:39;20.00;99.90
35593;DHT22;64447;52.140;5.602;2023-05-07T16:10:06;19.80;99.90
35593;DHT22;64447;52.140;5.602;2023-05-07T16:12:32;19.50;99.90
35593;DHT22;64447;52.140;5.602;2023-05-07T16:14:58;19.20;99.90
35593;DHT22;64447;52.140;5.602;2023-05-07T16:17:24;18.80;99.90
35593;DHT22;64447;52.140;5.602;2023-05-07T16:19:50;18.80;99.90
35593;DHT22;64447;52.140;5.602;2023-05-07T16:22:15;18.60;99.90
35593;DHT22;64447;52.140;5.602;2023-05-07T16:24:41;18.60;99.90
35593;DHT22;64447;52.140;5.602;2023-05-07T16:27:07;18.70;99.90
35593;DHT22;64447;52.140;5.602;2023-05-07T16:29:32;18.90;99.90
35593;DHT22;64447;52.140;5.602;2023-05-07T16:31:58;18.70;99.90
35593;DHT22;64447;52.140;5.602;2023-05-07T16:34:24;18.70;99.90
35593;DHT22;64447;52.140;5.602;2023-05-07T16:36:49;18.60;99.90
35593;DHT22;64447;52.140;5.602;2023-05-07T16:39:15;18.60;99.90
35593;DHT22;64447;52.140;5.602;2023-05-07T16:41:41;18.70;99.90
35593;DHT22;64447;52.140;5.602;2023-05-07T16:44:08;18.80;99.90
35593;DHT22;64447;52.140;5.602;2023-05-07T16:46:34;18.70;99.90
35593;DHT22;64447;52.140;5.602;2023-05-07T16:49:00;18.90;99.90
35593;DHT22;64447;52.140;5.602;2023-05-07T16:51:25;18.90;99.90
35593;DHT22;64447;52.140;5.602;2023-05-07T16:53:52;18.80;99.90
35593;DHT22;64447;52.140;5.602;2023-05-07T16:56:18;18.80;99.90
35593;DHT22;64447;52.140;5.602;2023-05-07T16:58:43;18.70;99.90
35593;DHT22;64447;52.140;5.602;2023-05-07T17:01:09;18.70;99.90
35593;DHT22;64447;52.140;5.602;2023-05-07T17:03:39;18.70;99.90
35593;DHT22;64447;52.140;5.602;2023-05-07T17:06:05;18.50;99.90
35593;DHT22;64447;52.140;5.602;2023-05-07T17:08:37;18.60;99.90
35593;DHT22;64447;52.140;5.602;2023-05-07T17:11:03;18.70;99.90
35593;DHT22;64447;52.140;5.602;2023-05-07T17:13:28;18.80;99.90
35593;DHT22;64447;52.140;5.602;2023-05-07T17:15:54;18.80;99.90
35593;DHT22;64447;52.140;5.602;2023-05-07T17:18:19;18.60;99.90
35593;DHT22;64447;52.140;5.602;2023-05-07T17:20:45;18.70;99.90
35593;DHT22;64447;52.140;5.602;2023-05-07T17:23:11;18.70;99.90
35593;DHT22;64447;52.140;5.602;2023-05-07T17:25:36;18.40;99.90
35593;DHT22;64447;52.140;5.602;2023-05-07T17:28:02;18.30;99.90
35593;DHT22;64447;52.140;5.602;2023-05-07T17:30:27;18.30;99.90
35593;DHT22;64447;52.140;5.602;2023-05-07T17:32:53;18.10;99.90
35593;DHT22;64447;52.140;5.602;2023-05-07T17:35:20;18.20;99.90
35593;DHT22;64447;52.140;5.602;2023-05-07T17:37:45;18.30;99.90
35593;DHT22;64447;52.140;5.602;2023-05-07T17:40:19;18.50;99.90
35593;DHT22;64447;52.140;5.602;2023-05-07T17:42:47;18.40;99.90
35593;DHT22;64447;52.140;5.602;2023-05-07T17:45:13;18.20;99.90
35593;DHT22;64447;52.140;5.602;2023-05-07T17:47:39;18.30;99.90
35593;DHT22;64447;52.140;5.602;2023-05-07T17:50:06;18.20;99.90
35593;DHT22;64447;52.140;5.602;2023-05-07T17:52:35;18.00;99.90
35593;DHT22;64447;52.140;5.602;2023-05-07T17:55:01;18.00;99.90
35593;DHT22;64447;52.140;5.602;2023-05-07T17:57:27;17.90;99.90
35593;DHT22;64447;52.140;5.602;2023-05-07T17:59:53;18.00;99.90
35593;DHT22;64447;52.140;5.602;2023-05-07T18:02:19;18.10;99.90
35593;DHT22;64447;52.140;5.602;2023-05-07T18:08:06;18.20;99.90
35593;DHT22;64447;52.140;5.602;2023-05-07T18:10:32;18.40;99.90
35593;DHT22;64447;52.140;5.602;2023-05-07T18:12:58;18.50;99.90